sensor_id;sensor_type;location;lat;lon;timestamp;pressure;altitude;pressure_sealevel;temperature;humidity
77877;BME280;67251;50.844;7.978;2023-08-30T00:00:52;98188.66;;;9.97;100.00
77877;BME280;67251;50.844;7.978;2023-08-30T00:03:18;98192.59;;;9.94;100.00
77877;BME280;67251;50.844;7.978;2023-08-30T00:05:43;98198.16;;;9.93;100.00
77877;BME280;67251;50.844;7.978;2023-08-30T00:08:09;98195.47;;;9.93;100.00
77877;BME280;67251;50.844;7.978;2023-08-30T00:10:34;98202.44;;;9.94;100.00
77877;BME280;67251;50.844;7.978;2023-08-30T00:13:00;98199.97;;;9.92;100.00
77877;BME280;67251;50.844;7.978;2023-08-30T00:15:25;98195.66;;;9.91;100.00
77877;BME280;67251;50.844;7.978;2023-08-30T00:17:50;98193.22;;;9.90;100.00
77877;BME280;67251;50.844;7.978;2023-08-30T00:20:19;98196.47;;;9.92;100.00
77877;BME280;67251;50.844;7.978;2023-08-30T00:22:45;98194.03;;;9.90;100.00
77877;BME280;67251;50.844;7.978;2023-08-30T00:25:10;98196.47;;;9.92;100.00
77877;BME280;67251;50.844;7.978;2023-08-30T00:27:35;98187.66;;;9.91;100.00
77877;BME280;67251;50.844;7.978;2023-08-30T00:30:01;98193.81;;;9.92;100.00
77877;BME280;67251;50.844;7.978;2023-08-30T00:32:26;98184.16;;;9.91;100.00
77877;BME280;67251;50.844;7.978;2023-08-30T00:34:52;98178.81;;;9.91;100.00
77877;BME280;67251;50.844;7.978;2023-08-30T00:37:17;98177.59;;;9.93;100.00
77877;BME280;67251;50.844;7.978;2023-08-30T00:39:43;98178.41;;;9.94;100.00
77877;BME280;67251;50.844;7.978;2023-08-30T00:42:08;98181.66;;;9.96;100.00
77877;BME280;67251;50.844;7.978;2023-08-30T00:44:34;98181.06;;;9.94;100.00
77877;BME280;67251;50.844;7.978;2023-08-30T00:47:01;98180.03;;;9.95;100.00
77877;BME280;67251;50.844;7.978;2023-08-30T00:49:28;98174.69;;;9.95;100.00
77877;BME280;67251;50.844;7.978;2023-08-30T00:51:54;98172.00;;;9.95;100.00
77877;BME280;67251;50.844;7.978;2023-08-30T00:54:20;98165.84;;;9.94;100.00
77877;BME280;67251;50.844;7.978;2023-08-30T00:56:46;98168.75;;;9.93;100.00
77877;BME280;67251;50.844;7.978;2023-08-30T00:59:12;98170.56;;;9.92;100.00
77877;BME280;67251;50.844;7.978;2023-08-30T01:01:38;98163.41;;;9.93;100.00
77877;BME280;67251;50.844;7.978;2023-08-30T01:04:04;98163.41;;;9.93;100.00
77877;BME280;67251;50.844;7.978;2023-08-30T01:06:29;98167.72;;;9.94;100.00
77877;BME280;67251;50.844;7.978;2023-08-30T01:08:54;98157.03;;;9.94;100.00
77877;BME280;67251;50.844;7.978;2023-08-30T01:14:23;98159.47;;;9.95;100.00
77877;BME280;67251;50.844;7.978;2023-08-30T01:16:50;98158.44;;;9.96;100.00
77877;BME280;67251;50.844;7.978;2023-08-30T01:27:49;98145.28;;;9.95;100.00
77877;BME280;67251;50.844;7.978;2023-08-30T01:30:16;98138.31;;;9.94;100.00
77877;BME280;67251;50.844;7.978;2023-08-30T01:32:43;98138.09;;;9.95;100.00
77877;BME280;67251;50.844;7.978;2023-08-30T01:35:09;98135.19;;;9.97;100.00
77877;BME280;67251;50.844;7.978;2023-08-30T01:37:36;98132.97;;;9.94;100.00
77877;BME280;67251;50.844;7.978;2023-08-30T01:40:03;98131.34;;;9.93;100.00
77877;BME280;67251;50.844;7.978;2023-08-30T01:42:31;98127.00;;;9.92;100.00
77877;BME280;67251;50.844;7.978;2023-08-30T01:47:57;98127.00;;;9.92;100.00
77877;BME280;67251;50.844;7.978;2023-08-30T01:50:23;98131.34;;;9.93;100.00
77877;BME280;67251;50.844;7.978;2023-08-30T01:52:49;98125.38;;;9.91;100.00
77877;BME280;67251;50.844;7.978;2023-08-30T01:55:15;98130.13;;;9.89;100.00
77877;BME280;67251;50.844;7.978;2023-08-30T01:57:43;98122.09;;;9.89;100.00
77877;BME280;67251;50.844;7.978;2023-08-30T02:00:09;98123.75;;;9.90;100.00
77877;BME280;67251;50.844;7.978;2023-08-30T02:02:34;98128.28;;;9.89;100.00
77877;BME280;67251;50.844;7.978;2023-08-30T02:04:59;98124.78;;;9.89;100.00
77877;BME280;67251;50.844;7.978;2023-08-30T02:10:37;98125.03;;;9.81;100.00
77877;BME280;67251;50.844;7.978;2023-08-30T02:13:06;98115.19;;;9.75;100.00
77877;BME280;67251;50.844;7.978;2023-08-30T02:15:33;98119.16;;;9.65;100.00
77877;BME280;67251;50.844;7.978;2023-08-30T02:17:59;98120.19;;;9.58;100.00
77877;BME280;67251;50.844;7.978;2023-08-30T02:20:26;98119.63;;;9.49;100.00
77877;BME280;67251;50.844;7.978;2023-08-30T02:22:51;98118.22;;;9.40;100.00
77877;BME280;67251;50.844;7.978;2023-08-30T02:25:16;98118.84;;;9.35;100.00
77877;BME280;67251;50.844;7.978;2023-08-30T02:27:42;98116.59;;;9.39;100.00
77877;BME280;67251;50.844;7.978;2023-08-30T02:30:08;98116.34;;;9.40;100.00
77877;BME280;67251;50.844;7.978;2023-08-30T02:32:33;98122.97;;;9.38;100.00
77877;BME280;67251;50.844;7.978;2023-08-30T02:34:59;98122.16;;;9.31;100.00
77877;BME280;67251;50.844;7.978;2023-08-30T02:37:24;98128.34;;;9.25;100.00
77877;BME280;67251;50.844;7.978;2023-08-30T02:39:50;98130.59;;;9.21;100.00
77877;BME280;67251;50.844;7.978;2023-08-30T02:45:37;98119.53;;;9.17;100.00
77877;BME280;67251;50.844;7.978;2023-08-30T02:48:03;98115.63;;;9.20;100.00
77877;BME280;67251;50.844;7.978;2023-08-30T02:50:28;98118.69;;;9.24;100.00
77877;BME280;67251;50.844;7.978;2023-08-30T02:52:54;98123.19;;;9.30;100.00
77877;BME280;67251;50.844;7.978;2023-08-30T02:55:19;98118.03;;;9.35;100.00
77877;BME280;67251;50.844;7.978;2023-08-30T02:57:44;98109.59;;;9.38;100.00
77877;BME280;67251;50.844;7.978;2023-08-30T03:00:12;98107.97;;;9.37;100.00
77877;BME280;67251;50.844;7.978;2023-08-30T03:02:37;98113.31;;;9.37;100.00
77877;BME280;67251;50.844;7.978;2023-08-30T03:05:03;98114.13;;;9.31;100.00
77877;BME280;67251;50.844;7.978;2023-08-30T03:07:29;98105.34;;;9.24;100.00
77877;BME280;67251;50.844;7.978;2023-08-30T03:09:54;98113.34;;;9.24;100.00
77877;BME280;67251;50.844;7.978;2023-08-30T03:12:20;98112.31;;;9.25;100.00
77877;BME280;67251;50.844;7.978;2023-08-30T03:14:46;98112.91;;;9.27;100.00
77877;BME280;67251;50.844;7.978;2023-08-30T03:17:12;98099.16;;;9.30;100.00
77877;BME280;67251;50.844;7.978;2023-08-30T03:19:37;98091.78;;;9.32;100.00
77877;BME280;67251;50.844;7.978;2023-08-30T03:22:02;98100.59;;;9.32;100.00
77877;BME280;67251;50.844;7.978;2023-08-30T03:24:28;98094.44;;;9.32;100.00
77877;BME280;67251;50.844;7.978;2023-08-30T03:26:53;98092.38;;;9.34;100.00
77877;BME280;67251;50.844;7.978;2023-08-30T03:29:19;98094.63;;;9.37;100.00
77877;BME280;67251;50.844;7.978;2023-08-30T03:31:44;98097.66;;;9.40;100.00
77877;BME280;67251;50.844;7.978;2023-08-30T03:34:09;98101.78;;;9.43;100.00
77877;BME280;67251;50.844;7.978;2023-08-30T03:36:35;98093.78;;;9.43;100.00
77877;BME280;67251;50.844;7.978;2023-08-30T03:39:00;98093.78;;;9.43;100.00
77877;BME280;67251;50.844;7.978;2023-08-30T03:41:25;98090.28;;;9.42;100.00
77877;BME280;67251;50.844;7.978;2023-08-30T03:43:51;98086.81;;;9.42;100.00
77877;BME280;67251;50.844;7.978;2023-08-30T03:46:16;98091.09;;;9.43;100.00
77877;BME280;67251;50.844;7.978;2023-08-30T03:48:41;98085.53;;;9.44;100.00
77877;BME280;67251;50.844;7.978;2023-08-30T03:51:07;98092.50;;;9.45;100.00
77877;BME280;67251;50.844;7.978;2023-08-30T03:53:32;98091.50;;;9.46;100.00
77877;BME280;67251;50.844;7.978;2023-08-30T03:55:58;98093.94;;;9.48;100.00
77877;BME280;67251;50.844;7.978;2023-08-30T03:58:24;98088.38;;;9.50;100.00
77877;BME280;67251;50.844;7.978;2023-08-30T04:00:50;98088.59;;;9.48;100.00
77877;BME280;67251;50.844;7.978;2023-08-30T04:03:15;98092.91;;;9.49;100.00
77877;BME280;67251;50.844;7.978;2023-08-30T04:05:41;98101.53;;;9.51;100.00
77877;BME280;67251;50.844;7.978;2023-08-30T04:08:07;98099.69;;;9.52;100.00
77877;BME280;67251;50.844;7.978;2023-08-30T04:10:38;98104.22;;;9.51;100.00
77877;BME280;67251;50.844;7.978;2023-08-30T04:13:04;98094.34;;;9.52;100.00
77877;BME280;67251;50.844;7.978;2023-08-30T04:15:35;98096.22;;;9.51;100.00
77877;BME280;67251;50.844;7.978;2023-08-30T04:18:05;98096.81;;;9.53;100.00
77877;BME280;67251;50.844;7.978;2023-08-30T04:20:31;98086.94;;;9.54;100.00
77877;BME280;67251;50.844;7.978;2023-08-30T04:22:57;98086.75;;;9.55;100.00
77877;BME280;67251;50.844;7.978;2023-08-30T04:25:23;98090.41;;;9.54;100.00
77877;BME280;67251;50.844;7.978;2023-08-30T04:27:49;98077.06;;;9.54;100.00
77877;BME280;67251;50.844;7.978;2023-08-30T04:30:16;98082.84;;;9.51;100.00
77877;BME280;67251;50.844;7.978;2023-08-30T04:32:41;98083.84;;;9.50;100.00
77877;BME280;67251;50.844;7.978;2023-08-30T04:35:07;98083.50;;;9.46;100.00
77877;BME280;67251;50.844;7.978;2023-08-30T04:37:33;98082.88;;;9.44;100.00
77877;BME280;67251;50.844;7.978;2023-08-30T04:39:58;98076.94;;;9.42;100.00
77877;BME280;67251;50.844;7.978;2023-08-30T04:42:23;98083.31;;;9.41;100.00
77877;BME280;67251;50.844;7.978;2023-08-30T04:44:50;98077.34;;;9.39;100.00
77877;BME280;67251;50.844;7.978;2023-08-30T04:47:15;98082.47;;;9.41;100.00
77877;BME280;67251;50.844;7.978;2023-08-30T04:49:40;98077.75;;;9.43;100.00
77877;BME280;67251;50.844;7.978;2023-08-30T04:52:06;98086.16;;;9.46;100.00
77877;BME280;67251;50.844;7.978;2023-08-30T04:54:31;98098.25;;;9.49;100.00
77877;BME280;67251;50.844;7.978;2023-08-30T04:56:56;98088.78;;;9.53;100.00
77877;BME280;67251;50.844;7.978;2023-08-30T04:59:22;98091.03;;;9.56;100.00
77877;BME280;67251;50.844;7.978;2023-08-30T05:01:47;98084.25;;;9.60;100.00
77877;BME280;67251;50.844;7.978;2023-08-30T05:04:13;98079.28;;;9.64;100.00
77877;BME280;67251;50.844;7.978;2023-08-30T05:06:38;98077.00;;;9.67;100.00
77877;BME280;67251;50.844;7.978;2023-08-30T05:09:03;98073.28;;;9.68;100.00
77877;BME280;67251;50.844;7.978;2023-08-30T05:11:29;98071.25;;;9.70;100.00
77877;BME280;67251;50.844;7.978;2023-08-30T05:13:55;98064.44;;;9.75;100.00
77877;BME280;67251;50.844;7.978;2023-08-30T05:16:20;98062.34;;;9.77;100.00
77877;BME280;67251;50.844;7.978;2023-08-30T05:18:45;98062.75;;;9.80;100.00
77877;BME280;67251;50.844;7.978;2023-08-30T05:21:13;98065.81;;;9.84;100.00
77877;BME280;67251;50.844;7.978;2023-08-30T05:23:39;98070.53;;;9.88;100.00
77877;BME280;67251;50.844;7.978;2023-08-30T05:26:07;98068.22;;;9.92;100.00
77877;BME280;67251;50.844;7.978;2023-08-30T05:28:33;98066.16;;;9.94;100.00
77877;BME280;67251;50.844;7.978;2023-08-30T05:30:58;98054.44;;;9.95;100.00
77877;BME280;67251;50.844;7.978;2023-08-30T05:33:24;98062.63;;;10.00;100.00
77877;BME280;67251;50.844;7.978;2023-08-30T05:35:49;98065.47;;;10.05;100.00
77877;BME280;67251;50.844;7.978;2023-08-30T05:38:15;98059.88;;;10.07;100.00
77877;BME280;67251;50.844;7.978;2023-08-30T05:40:40;98058.00;;;10.14;100.00
77877;BME280;67251;50.844;7.978;2023-08-30T05:43:08;98054.81;;;10.23;100.00
77877;BME280;67251;50.844;7.978;2023-08-30T05:45:33;98054.59;;;10.32;100.00
77877;BME280;67251;50.844;7.978;2023-08-30T05:47:59;98054.38;;;10.33;100.00
77877;BME280;67251;50.844;7.978;2023-08-30T05:50:24;98055.56;;;10.37;100.00
77877;BME280;67251;50.844;7.978;2023-08-30T05:52:49;98044.97;;;10.49;100.00
77877;BME280;67251;50.844;7.978;2023-08-30T05:55:16;98058.69;;;10.59;100.00
77877;BME280;67251;50.844;7.978;2023-08-30T05:57:42;98062.47;;;10.70;100.00
77877;BME280;67251;50.844;7.978;2023-08-30T06:00:07;98060.25;;;10.85;100.00
77877;BME280;67251;50.844;7.978;2023-08-30T06:02:34;98052.47;;;11.02;100.00
77877;BME280;67251;50.844;7.978;2023-08-30T06:05:02;98055.13;;;11.20;100.00
77877;BME280;67251;50.844;7.978;2023-08-30T06:07:28;98054.75;;;11.35;100.00
77877;BME280;67251;50.844;7.978;2023-08-30T06:09:53;98050.84;;;11.49;100.00
77877;BME280;67251;50.844;7.978;2023-08-30T06:12:18;98046.56;;;11.60;100.00
77877;BME280;67251;50.844;7.978;2023-08-30T06:14:43;98049.50;;;11.70;100.00
77877;BME280;67251;50.844;7.978;2023-08-30T06:17:15;98051.00;;;11.85;100.00
77877;BME280;67251;50.844;7.978;2023-08-30T06:19:40;98046.03;;;12.00;100.00
77877;BME280;67251;50.844;7.978;2023-08-30T06:22:05;98049.47;;;12.19;100.00
77877;BME280;67251;50.844;7.978;2023-08-30T06:24:31;98042.13;;;12.38;100.00
77877;BME280;67251;50.844;7.978;2023-08-30T06:26:56;98046.69;;;12.49;100.00
77877;BME280;67251;50.844;7.978;2023-08-30T06:29:21;98046.78;;;12.54;100.00
77877;BME280;67251;50.844;7.978;2023-08-30T06:31:47;98049.84;;;12.58;98.59
77877;BME280;67251;50.844;7.978;2023-08-30T06:34:12;98045.16;;;12.53;96.17
77877;BME280;67251;50.844;7.978;2023-08-30T06:36:37;98043.75;;;12.62;96.51
77877;BME280;67251;50.844;7.978;2023-08-30T06:39:03;98040.25;;;12.73;96.49
77877;BME280;67251;50.844;7.978;2023-08-30T06:41:29;98039.88;;;12.93;95.51
77877;BME280;67251;50.844;7.978;2023-08-30T06:43:54;98042.66;;;13.10;94.10
77877;BME280;67251;50.844;7.978;2023-08-30T06:46:19;98051.06;;;13.25;93.68
77877;BME280;67251;50.844;7.978;2023-08-30T06:48:45;98048.19;;;13.44;92.67
77877;BME280;67251;50.844;7.978;2023-08-30T06:51:10;98037.81;;;13.64;91.92
77877;BME280;67251;50.844;7.978;2023-08-30T06:53:36;98026.66;;;13.84;89.15
77877;BME280;67251;50.844;7.978;2023-08-30T06:56:01;98026.81;;;13.94;88.31
77877;BME280;67251;50.844;7.978;2023-08-30T06:58:27;98024.63;;;14.08;87.32
77877;BME280;67251;50.844;7.978;2023-08-30T07:00:53;98019.66;;;14.33;86.07
77877;BME280;67251;50.844;7.978;2023-08-30T07:03:18;98018.88;;;14.50;84.95
77877;BME280;67251;50.844;7.978;2023-08-30T07:05:44;98018.19;;;14.60;84.82
77877;BME280;67251;50.844;7.978;2023-08-30T07:08:09;98023.59;;;15.20;82.81
77877;BME280;67251;50.844;7.978;2023-08-30T07:10:35;98012.00;;;15.96;78.66
77877;BME280;67251;50.844;7.978;2023-08-30T07:13:00;98011.63;;;16.14;75.07
77877;BME280;67251;50.844;7.978;2023-08-30T07:15:26;98008.81;;;16.04;73.98
77877;BME280;67251;50.844;7.978;2023-08-30T07:17:51;98005.06;;;16.79;71.99
77877;BME280;67251;50.844;7.978;2023-08-30T07:20:17;97997.81;;;17.68;70.23
77877;BME280;67251;50.844;7.978;2023-08-30T07:22:42;97993.53;;;18.59;66.42
77877;BME280;67251;50.844;7.978;2023-08-30T07:25:07;97992.25;;;19.31;62.38
77877;BME280;67251;50.844;7.978;2023-08-30T07:27:35;97982.75;;;19.83;59.48
77877;BME280;67251;50.844;7.978;2023-08-30T07:30:00;97985.38;;;19.94;59.08
77877;BME280;67251;50.844;7.978;2023-08-30T07:32:26;97976.00;;;20.44;58.54
77877;BME280;67251;50.844;7.978;2023-08-30T07:34:52;97976.66;;;20.89;56.60
77877;BME280;67251;50.844;7.978;2023-08-30T07:37:21;97975.31;;;21.29;54.53
77877;BME280;67251;50.844;7.978;2023-08-30T07:39:46;97976.91;;;21.73;54.59
77877;BME280;67251;50.844;7.978;2023-08-30T07:42:13;97965.28;;;21.86;53.89
77877;BME280;67251;50.844;7.978;2023-08-30T07:44:38;97971.22;;;22.26;53.33
77877;BME280;67251;50.844;7.978;2023-08-30T07:47:04;97960.31;;;23.00;52.25
77877;BME280;67251;50.844;7.978;2023-08-30T07:49:29;97954.06;;;23.77;49.67
77877;BME280;67251;50.844;7.978;2023-08-30T07:51:55;97959.44;;;24.13;47.38
77877;BME280;67251;50.844;7.978;2023-08-30T07:54:20;97950.91;;;24.60;46.55
77877;BME280;67251;50.844;7.978;2023-08-30T07:56:45;97954.59;;;24.95;46.41
77877;BME280;67251;50.844;7.978;2023-08-30T07:59:11;97948.38;;;25.12;46.02
77877;BME280;67251;50.844;7.978;2023-08-30T08:01:36;97950.53;;;25.23;46.09
77877;BME280;67251;50.844;7.978;2023-08-30T08:04:01;97955.75;;;25.60;44.78
77877;BME280;67251;50.844;7.978;2023-08-30T08:06:27;97955.88;;;25.55;43.89
77877;BME280;67251;50.844;7.978;2023-08-30T08:08:53;97956.88;;;25.76;43.82
77877;BME280;67251;50.844;7.978;2023-08-30T08:11:18;97952.63;;;25.35;43.12
77877;BME280;67251;50.844;7.978;2023-08-30T08:13:44;97960.19;;;25.30;43.82
77877;BME280;67251;50.844;7.978;2023-08-30T08:16:09;97959.94;;;25.92;43.21
77877;BME280;67251;50.844;7.978;2023-08-30T08:18:34;97954.41;;;26.44;42.13
77877;BME280;67251;50.844;7.978;2023-08-30T08:21:00;97953.69;;;26.73;41.21
77877;BME280;67251;50.844;7.978;2023-08-30T08:23:25;97949.94;;;27.45;40.63
77877;BME280;67251;50.844;7.978;2023-08-30T08:25:57;97944.09;;;28.10;38.92
77877;BME280;67251;50.844;7.978;2023-08-30T08:28:23;97933.72;;;28.61;38.37
77877;BME280;67251;50.844;7.978;2023-08-30T08:30:48;97936.22;;;28.53;38.32
77877;BME280;67251;50.844;7.978;2023-08-30T08:33:19;97944.31;;;27.63;38.62
77877;BME280;67251;50.844;7.978;2023-08-30T08:35:48;97938.75;;;27.92;38.81
77877;BME280;67251;50.844;7.978;2023-08-30T08:38:13;97932.09;;;28.47;38.51
77877;BME280;67251;50.844;7.978;2023-08-30T08:40:39;97933.47;;;28.53;37.23
77877;BME280;67251;50.844;7.978;2023-08-30T08:43:05;97933.91;;;28.56;37.55
77877;BME280;67251;50.844;7.978;2023-08-30T08:45:34;97925.94;;;29.12;36.48
77877;BME280;67251;50.844;7.978;2023-08-30T08:48:00;97935.63;;;28.48;36.70
77877;BME280;67251;50.844;7.978;2023-08-30T08:50:28;97932.53;;;27.83;36.36
77877;BME280;67251;50.844;7.978;2023-08-30T08:52:54;97930.16;;;27.94;36.09
77877;BME280;67251;50.844;7.978;2023-08-30T08:55:21;97946.00;;;24.79;41.00
77877;BME280;67251;50.844;7.978;2023-08-30T08:57:48;97933.00;;;25.42;39.75
77877;BME280;67251;50.844;7.978;2023-08-30T09:00:14;97930.41;;;26.15;39.66
77877;BME280;67251;50.844;7.978;2023-08-30T09:02:42;97921.31;;;27.25;38.17
77877;BME280;67251;50.844;7.978;2023-08-30T09:05:08;97926.19;;;27.62;36.47
77877;BME280;67251;50.844;7.978;2023-08-30T09:07:34;97914.06;;;28.05;37.64
77877;BME280;67251;50.844;7.978;2023-08-30T09:10:01;97918.63;;;28.34;34.85
77877;BME280;67251;50.844;7.978;2023-08-30T09:12:26;97915.38;;;28.89;35.16
77877;BME280;67251;50.844;7.978;2023-08-30T09:14:55;97926.06;;;29.80;34.71
77877;BME280;67251;50.844;7.978;2023-08-30T09:17:21;97923.38;;;29.43;31.46
77877;BME280;67251;50.844;7.978;2023-08-30T09:19:46;97915.97;;;29.72;31.70
77877;BME280;67251;50.844;7.978;2023-08-30T09:22:12;97922.91;;;29.94;30.04
77877;BME280;67251;50.844;7.978;2023-08-30T09:24:41;97920.38;;;27.42;32.12
77877;BME280;67251;50.844;7.978;2023-08-30T09:27:07;97926.44;;;28.11;32.33
77877;BME280;67251;50.844;7.978;2023-08-30T09:29:32;97916.28;;;29.30;31.87
77877;BME280;67251;50.844;7.978;2023-08-30T09:31:58;97915.72;;;29.24;32.89
77877;BME280;67251;50.844;7.978;2023-08-30T09:34:24;97923.63;;;25.34;36.67
77877;BME280;67251;50.844;7.978;2023-08-30T09:36:51;97934.47;;;24.29;40.10
77877;BME280;67251;50.844;7.978;2023-08-30T09:39:16;97929.91;;;24.46;41.05
77877;BME280;67251;50.844;7.978;2023-08-30T09:44:21;97932.19;;;23.27;41.89
77877;BME280;67251;50.844;7.978;2023-08-30T09:46:54;97925.75;;;23.09;42.21
77877;BME280;67251;50.844;7.978;2023-08-30T09:49:25;97915.75;;;23.05;42.58
77877;BME280;67251;50.844;7.978;2023-08-30T09:51:52;97916.69;;;22.73;42.53
77877;BME280;67251;50.844;7.978;2023-08-30T09:54:22;97914.03;;;22.95;42.23
77877;BME280;67251;50.844;7.978;2023-08-30T09:56:51;97902.72;;;23.52;41.59
77877;BME280;67251;50.844;7.978;2023-08-30T09:59:18;97905.06;;;23.81;40.98
77877;BME280;67251;50.844;7.978;2023-08-30T10:01:45;97911.25;;;24.88;39.42
77877;BME280;67251;50.844;7.978;2023-08-30T10:04:11;97899.56;;;25.05;37.07
77877;BME280;67251;50.844;7.978;2023-08-30T10:06:37;97896.09;;;25.39;39.10
77877;BME280;67251;50.844;7.978;2023-08-30T10:09:03;97892.22;;;25.40;38.80
77877;BME280;67251;50.844;7.978;2023-08-30T10:11:33;97890.53;;;24.96;37.90
77877;BME280;67251;50.844;7.978;2023-08-30T10:14:00;97888.88;;;24.38;38.41
77877;BME280;67251;50.844;7.978;2023-08-30T10:16:26;97893.72;;;22.87;40.69
77877;BME280;67251;50.844;7.978;2023-08-30T10:18:54;97883.31;;;21.88;41.51
77877;BME280;67251;50.844;7.978;2023-08-30T10:21:26;97888.84;;;21.97;43.12
77877;BME280;67251;50.844;7.978;2023-08-30T10:23:53;97884.44;;;22.75;41.30
77877;BME280;67251;50.844;7.978;2023-08-30T10:26:23;97876.19;;;23.30;41.03
77877;BME280;67251;50.844;7.978;2023-08-30T10:28:51;97874.34;;;23.39;39.47
77877;BME280;67251;50.844;7.978;2023-08-30T10:31:17;97879.81;;;22.89;40.26
77877;BME280;67251;50.844;7.978;2023-08-30T10:33:55;97871.28;;;22.77;40.76
77877;BME280;67251;50.844;7.978;2023-08-30T10:36:26;97877.06;;;23.03;43.41
77877;BME280;67251;50.844;7.978;2023-08-30T10:38:53;97871.03;;;23.28;42.72
77877;BME280;67251;50.844;7.978;2023-08-30T10:41:24;97860.69;;;23.61;41.77
77877;BME280;67251;50.844;7.978;2023-08-30T10:43:51;97862.25;;;23.98;41.22
77877;BME280;67251;50.844;7.978;2023-08-30T10:46:17;97859.38;;;23.36;40.87
77877;BME280;67251;50.844;7.978;2023-08-30T10:48:43;97863.22;;;23.71;41.61
77877;BME280;67251;50.844;7.978;2023-08-30T10:51:34;97869.59;;;23.89;39.83
77877;BME280;67251;50.844;7.978;2023-08-30T10:54:12;97869.28;;;22.82;41.70
77877;BME280;67251;50.844;7.978;2023-08-30T10:56:55;97873.34;;;21.27;44.33
77877;BME280;67251;50.844;7.978;2023-08-30T10:59:23;97865.94;;;21.84;43.93
77877;BME280;67251;50.844;7.978;2023-08-30T11:01:50;97857.59;;;22.40;43.21
77877;BME280;67251;50.844;7.978;2023-08-30T11:04:17;97852.09;;;22.82;43.05
77877;BME280;67251;50.844;7.978;2023-08-30T11:06:44;97849.69;;;22.80;42.09
77877;BME280;67251;50.844;7.978;2023-08-30T11:09:12;97853.22;;;22.39;42.61
77877;BME280;67251;50.844;7.978;2023-08-30T11:11:38;97854.97;;;22.35;42.93
77877;BME280;67251;50.844;7.978;2023-08-30T11:14:05;97845.47;;;22.47;44.55
77877;BME280;67251;50.844;7.978;2023-08-30T11:16:31;97846.88;;;22.58;44.86
77877;BME280;67251;50.844;7.978;2023-08-30T11:18:56;97828.50;;;22.63;44.71
77877;BME280;67251;50.844;7.978;2023-08-30T11:21:22;97833.31;;;22.80;43.10
77877;BME280;67251;50.844;7.978;2023-08-30T11:23:47;97837.50;;;22.64;42.86
77877;BME280;67251;50.844;7.978;2023-08-30T11:26:12;97834.94;;;22.81;42.45
77877;BME280;67251;50.844;7.978;2023-08-30T11:28:38;97837.59;;;22.73;43.50
77877;BME280;67251;50.844;7.978;2023-08-30T11:31:08;97823.06;;;22.50;44.34
77877;BME280;67251;50.844;7.978;2023-08-30T11:33:34;97829.84;;;22.06;43.56
77877;BME280;67251;50.844;7.978;2023-08-30T11:35:59;97821.84;;;21.49;43.79
77877;BME280;67251;50.844;7.978;2023-08-30T11:38:26;97837.97;;;20.89;45.10
77877;BME280;67251;50.844;7.978;2023-08-30T11:40:51;97838.34;;;21.01;47.32
77877;BME280;67251;50.844;7.978;2023-08-30T11:43:17;97829.94;;;20.31;47.78
77877;BME280;67251;50.844;7.978;2023-08-30T11:45:42;97831.97;;;20.44;49.02
77877;BME280;67251;50.844;7.978;2023-08-30T11:48:08;97822.22;;;20.19;48.31
77877;BME280;67251;50.844;7.978;2023-08-30T11:50:34;97828.84;;;19.79;50.22
77877;BME280;67251;50.844;7.978;2023-08-30T11:53:00;97834.78;;;19.47;52.34
77877;BME280;67251;50.844;7.978;2023-08-30T11:55:26;97823.91;;;19.18;53.87
77877;BME280;67251;50.844;7.978;2023-08-30T11:57:51;97832.81;;;18.79;53.23
77877;BME280;67251;50.844;7.978;2023-08-30T12:00:18;97838.09;;;18.45;54.01
77877;BME280;67251;50.844;7.978;2023-08-30T12:02:45;97837.84;;;18.31;54.42
77877;BME280;67251;50.844;7.978;2023-08-30T12:05:14;97826.72;;;18.37;55.94
77877;BME280;67251;50.844;7.978;2023-08-30T12:07:40;97837.72;;;18.61;57.80
77877;BME280;67251;50.844;7.978;2023-08-30T12:10:07;97839.94;;;18.54;60.38
77877;BME280;67251;50.844;7.978;2023-08-30T12:12:33;97840.72;;;18.60;61.95
77877;BME280;67251;50.844;7.978;2023-08-30T12:14:58;97830.16;;;18.69;62.05
77877;BME280;67251;50.844;7.978;2023-08-30T12:17:24;97835.63;;;19.08;62.52
77877;BME280;67251;50.844;7.978;2023-08-30T12:19:56;97826.59;;;19.52;61.01
77877;BME280;67251;50.844;7.978;2023-08-30T12:22:22;97824.13;;;19.89;59.42
77877;BME280;67251;50.844;7.978;2023-08-30T12:24:48;97840.16;;;19.62;58.34
77877;BME280;67251;50.844;7.978;2023-08-30T12:27:13;97831.56;;;19.45;60.63
77877;BME280;67251;50.844;7.978;2023-08-30T12:29:39;97831.28;;;19.07;61.75
77877;BME280;67251;50.844;7.978;2023-08-30T12:32:05;97825.72;;;18.88;62.72
77877;BME280;67251;50.844;7.978;2023-08-30T12:34:31;97826.28;;;18.80;60.92
77877;BME280;67251;50.844;7.978;2023-08-30T12:36:56;97828.06;;;19.00;62.10
77877;BME280;67251;50.844;7.978;2023-08-30T12:39:21;97822.41;;;18.96;61.79
77877;BME280;67251;50.844;7.978;2023-08-30T12:41:47;97828.69;;;18.92;62.15
77877;BME280;67251;50.844;7.978;2023-08-30T12:44:12;97813.06;;;18.63;62.47
77877;BME280;67251;50.844;7.978;2023-08-30T12:46:38;97826.78;;;18.17;62.01
77877;BME280;67251;50.844;7.978;2023-08-30T12:49:03;97818.75;;;17.81;61.26
77877;BME280;67251;50.844;7.978;2023-08-30T12:51:28;97824.41;;;17.59;62.68
77877;BME280;67251;50.844;7.978;2023-08-30T12:53:55;97816.28;;;17.49;64.10
77877;BME280;67251;50.844;7.978;2023-08-30T12:56:21;97819.81;;;17.70;62.23
77877;BME280;67251;50.844;7.978;2023-08-30T12:58:46;97801.41;;;17.98;62.14
77877;BME280;67251;50.844;7.978;2023-08-30T13:01:11;97805.00;;;18.48;60.92
77877;BME280;67251;50.844;7.978;2023-08-30T13:03:37;97793.03;;;19.08;59.93
77877;BME280;67251;50.844;7.978;2023-08-30T13:06:02;97788.84;;;19.26;57.48
77877;BME280;67251;50.844;7.978;2023-08-30T13:08:29;97786.28;;;19.40;56.86
77877;BME280;67251;50.844;7.978;2023-08-30T13:10:54;97796.66;;;19.33;56.81
77877;BME280;67251;50.844;7.978;2023-08-30T13:13:20;97787.72;;;19.32;57.56
77877;BME280;67251;50.844;7.978;2023-08-30T13:15:47;97780.97;;;18.90;56.92
77877;BME280;67251;50.844;7.978;2023-08-30T13:18:13;97783.59;;;18.51;58.71